createdAt,value
2022-08-19T00:01:53.461Z,10.87
2022-08-19T00:04:25.329Z,10.93
2022-08-19T00:06:53.047Z,11.50
2022-08-19T00:09:21.399Z,10.80
2022-08-19T00:11:48.094Z,11.43
2022-08-19T00:14:17.402Z,11.27
2022-08-19T00:16:47.530Z,12.27
2022-08-19T00:19:15.035Z,11.63
2022-08-19T00:21:41.976Z,11.73
2022-08-19T00:24:10.396Z,11.67
2022-08-19T00:26:37.974Z,11.93
2022-08-19T00:29:06.098Z,11.40
2022-08-19T00:31:32.849Z,11.87
2022-08-19T00:33:59.540Z,11.87
2022-08-19T00:36:26.445Z,11.87
2022-08-19T00:38:53.429Z,13.30
2022-08-19T00:41:22.272Z,13.20
2022-08-19T00:44:01.123Z,13.77
2022-08-19T00:46:28.229Z,13.10
2022-08-19T00:48:57.010Z,12.10
2022-08-19T00:51:27.518Z,13.23
2022-08-19T00:53:57.740Z,12.90
2022-08-19T00:56:24.994Z,13.27
2022-08-19T00:58:51.707Z,12.67
2022-08-19T01:01:18.405Z,12.90
2022-08-19T01:03:58.058Z,13.73
2022-08-19T01:06:26.558Z,12.60
2022-08-19T01:08:54.668Z,12.80
2022-08-19T01:11:22.597Z,13.77
2022-08-19T01:13:51.178Z,14.50
2022-08-19T01:16:20.389Z,13.60
2022-08-19T01:18:47.829Z,13.03
2022-08-19T01:21:38.721Z,13.23
2022-08-19T01:24:05.412Z,14.27
2022-08-19T01:26:31.932Z,14.60
2022-08-19T01:29:02.083Z,15.53
2022-08-19T01:31:32.662Z,15.20
2022-08-19T01:34:00.896Z,14.70
2022-08-19T01:36:33.868Z,14.07
2022-08-19T01:39:02.383Z,14.47
2022-08-19T01:41:29.027Z,14.10
2022-08-19T01:44:03.141Z,15.03
2022-08-19T01:46:44.691Z,14.37
2022-08-19T01:49:11.492Z,14.67
2022-08-19T01:51:40.213Z,15.07
2022-08-19T01:54:08.942Z,13.80
2022-08-19T01:56:35.717Z,14.70
2022-08-19T01:59:11.409Z,14.10
2022-08-19T02:01:38.052Z,14.13
2022-08-19T02:04:06.053Z,13.57
2022-08-19T02:06:33.271Z,14.00
2022-08-19T02:09:00.189Z,15.13
2022-08-19T02:11:29.766Z,15.80
2022-08-19T02:13:56.677Z,15.80
2022-08-19T02:16:23.357Z,14.27
2022-08-19T02:18:50.465Z,14.93
2022-08-19T02:21:18.791Z,15.17
2022-08-19T02:23:46.402Z,14.17
2022-08-19T02:26:13.603Z,14.93
2022-08-19T02:28:41.613Z,16.70
2022-08-19T02:31:17.081Z,15.27
2022-08-19T02:33:43.765Z,15.67
2022-08-19T02:36:12.922Z,15.47
2022-08-19T02:38:43.202Z,15.40
2022-08-19T02:41:23.069Z,15.83
2022-08-19T02:44:26.394Z,15.33
2022-08-19T02:46:40.946Z,15.57
2022-08-19T02:49:08.694Z,16.77
2022-08-19T02:51:39.442Z,16.93
2022-08-19T02:54:07.869Z,16.17
2022-08-19T02:56:40.224Z,16.83
2022-08-19T02:59:11.189Z,16.13
2022-08-19T03:01:40.750Z,15.60
2022-08-19T03:04:08.569Z,16.03
2022-08-19T03:06:38.133Z,16.30
2022-08-19T03:09:05.107Z,16.53
2022-08-19T03:11:33.420Z,16.33
2022-08-19T03:14:01.172Z,15.93
2022-08-19T03:16:29.893Z,16.60
2022-08-19T03:19:01.062Z,16.17
2022-08-19T03:21:32.892Z,14.87
2022-08-19T03:24:02.275Z,16.50
2022-08-19T03:26:29.086Z,16.47
2022-08-19T03:28:58.426Z,15.80
2022-08-19T03:31:45.548Z,15.90
2022-08-19T03:34:18.772Z,16.37
2022-08-19T03:36:47.102Z,15.67
2022-08-19T03:39:14.056Z,15.27
2022-08-19T03:41:45.385Z,15.90
2022-08-19T03:44:17.060Z,15.23
2022-08-19T03:46:46.965Z,16.63
2022-08-19T03:49:14.244Z,16.33
2022-08-19T03:51:43.294Z,15.27
2022-08-19T03:54:13.902Z,15.30
2022-08-19T03:56:42.330Z,15.87
2022-08-19T03:59:11.780Z,14.80
2022-08-19T04:01:38.562Z,15.37
2022-08-19T04:04:05.473Z,16.60
2022-08-19T04:06:39.555Z,16.33
2022-08-19T04:09:09.470Z,17.03
2022-08-19T04:11:43.081Z,14.97
2022-08-19T04:14:16.641Z,16.33
2022-08-19T04:16:45.421Z,15.33
2022-08-19T04:19:13.098Z,15.73
2022-08-19T04:21:40.638Z,16.13
2022-08-19T04:24:07.425Z,15.63
2022-08-19T04:26:38.305Z,15.63
2022-08-19T04:29:12.748Z,17.20
2022-08-19T04:31:41.997Z,16.60
2022-08-19T04:34:11.964Z,16.60
2022-08-19T04:36:41.547Z,15.63
2022-08-19T04:39:14.722Z,16.27
2022-08-19T04:41:59.870Z,16.87
2022-08-19T04:44:26.696Z,16.07
2022-08-19T04:46:54.070Z,16.27
2022-08-19T04:49:23.449Z,16.17
2022-08-19T04:51:53.365Z,16.40
2022-08-19T04:54:37.025Z,16.00
2022-08-19T04:57:07.890Z,17.37
2022-08-19T04:59:35.113Z,16.40
2022-08-19T05:02:01.746Z,15.00
2022-08-19T05:04:32.795Z,16.97
2022-08-19T05:07:02.111Z,17.40
2022-08-19T05:09:52.629Z,16.30
2022-08-19T05:12:18.785Z,16.00
2022-08-19T05:14:48.311Z,16.67
2022-08-19T05:17:34.933Z,16.77
2022-08-19T05:20:20.976Z,16.23
2022-08-19T05:22:48.855Z,15.90
2022-08-19T05:25:20.946Z,16.43
2022-08-19T05:27:48.267Z,15.70
2022-08-19T05:30:15.443Z,16.07
2022-08-19T05:32:42.436Z,16.27
2022-08-19T05:35:10.465Z,15.37
2022-08-19T05:37:37.315Z,16.63
2022-08-19T05:40:05.408Z,15.07
2022-08-19T05:42:32.225Z,15.07
2022-08-19T05:44:58.896Z,15.83
2022-08-19T05:47:25.445Z,16.37
2022-08-19T05:49:52.106Z,16.17
2022-08-19T05:52:25.517Z,16.30
2022-08-19T05:54:53.202Z,15.40
2022-08-19T05:57:20.372Z,17.03
2022-08-19T05:59:49.439Z,16.00
2022-08-19T06:02:20.510Z,15.43
2022-08-19T06:04:47.563Z,16.97
2022-08-19T06:07:14.189Z,16.83
2022-08-19T06:09:43.591Z,16.93
2022-08-19T06:12:10.466Z,15.87
2022-08-19T06:14:41.687Z,15.60
2022-08-19T06:17:09.264Z,15.93
2022-08-19T06:19:40.890Z,15.57
2022-08-19T06:22:08.477Z,16.03
2022-08-19T06:24:36.211Z,14.73
2022-08-19T06:27:06.683Z,14.40
2022-08-19T06:29:33.726Z,15.07
2022-08-19T06:32:01.833Z,15.65
2022-08-19T06:34:31.165Z,15.02
2022-08-19T06:37:02.052Z,14.67
2022-08-19T06:39:32.199Z,15.32
2022-08-19T06:42:01.578Z,14.68
2022-08-19T06:44:30.538Z,14.88
2022-08-19T06:46:58.796Z,14.18
2022-08-19T06:49:28.618Z,14.70
2022-08-19T06:51:57.726Z,14.13
2022-08-19T06:54:30.791Z,13.75
2022-08-19T06:57:04.732Z,14.32
2022-08-19T06:59:34.152Z,13.27
2022-08-19T07:02:06.396Z,13.32
2022-08-19T07:04:34.857Z,13.65
2022-08-19T07:07:19.907Z,12.65
2022-08-19T07:09:57.127Z,12.80
2022-08-19T07:12:28.355Z,11.95
2022-08-19T07:14:56.836Z,10.43
2022-08-19T07:17:24.636Z,12.38
2022-08-19T07:19:51.784Z,11.32
2022-08-19T07:22:23.827Z,10.75
2022-08-19T07:24:51.955Z,10.65
2022-08-19T07:27:25.362Z,9.23
2022-08-19T07:29:55.779Z,8.80
2022-08-19T07:32:23.849Z,9.32
2022-08-19T07:34:50.430Z,8.80
2022-08-19T07:37:17.190Z,8.75
2022-08-19T07:39:44.045Z,8.70
2022-08-19T07:42:13.388Z,8.18
2022-08-19T07:47:49.744Z,8.95
2022-08-19T07:50:00.638Z,8.27
2022-08-19T07:52:30.056Z,7.95
2022-08-19T07:54:56.622Z,8.05
2022-08-19T07:57:23.197Z,8.30
2022-08-19T07:59:49.782Z,8.35
2022-08-19T08:02:16.348Z,7.18
2022-08-19T08:05:01.209Z,7.53
2022-08-19T08:07:46.661Z,6.80
2022-08-19T08:10:21.329Z,7.80
2022-08-19T08:13:09.306Z,7.20
2022-08-19T08:15:38.584Z,7.55
2022-08-19T08:18:08.565Z,7.30
2022-08-19T08:20:35.923Z,7.60
2022-08-19T08:23:21.145Z,6.57
2022-08-19T08:25:49.441Z,6.38
2022-08-19T08:28:17.664Z,7.00
2022-08-19T08:30:46.777Z,7.00
2022-08-19T08:35:46.672Z,7.15
2022-08-19T08:38:14.102Z,7.25
2022-08-19T08:40:45.629Z,6.97
2022-08-19T08:43:32.198Z,7.00
2022-08-19T08:46:16.354Z,6.90
2022-08-19T08:49:29.430Z,7.25
2022-08-19T08:52:16.640Z,6.78
2022-08-19T08:54:54.759Z,6.18
2022-08-19T08:57:37.078Z,6.35
2022-08-19T09:00:16.192Z,6.68
2022-08-19T09:02:43.772Z,6.38
2022-08-19T09:05:16.572Z,6.72
2022-08-19T09:07:58.678Z,6.40
2022-08-19T09:10:32.552Z,6.30
2022-08-19T09:13:25.769Z,6.93
2022-08-19T09:15:58.529Z,6.22
2022-08-19T09:18:25.193Z,6.03
2022-08-19T09:20:57.236Z,6.22
2022-08-19T09:23:26.550Z,5.55
2022-08-19T09:25:54.116Z,6.07
2022-08-19T09:28:22.696Z,5.55
2022-08-19T09:30:54.133Z,5.38
2022-08-19T09:33:20.969Z,5.50
2022-08-19T09:35:53.696Z,5.90
2022-08-19T09:38:21.572Z,5.40
2022-08-19T09:40:48.482Z,5.40
2022-08-19T09:43:33.018Z,5.20
2022-08-19T09:46:01.855Z,5.97
2022-08-19T09:48:28.538Z,5.13
2022-08-19T09:50:55.113Z,5.13
2022-08-19T09:53:25.538Z,5.68
2022-08-19T09:55:52.737Z,5.47
2022-08-19T09:58:21.355Z,5.30
2022-08-19T10:00:51.595Z,4.95
2022-08-19T10:03:18.337Z,5.43
2022-08-19T10:05:50.521Z,5.63
2022-08-19T10:08:31.286Z,5.47
2022-08-19T10:10:59.004Z,5.85
2022-08-19T10:13:28.243Z,5.60
2022-08-19T10:15:57.523Z,5.50
2022-08-19T10:18:26.487Z,5.28
2022-08-19T10:21:02.417Z,5.53
2022-08-19T10:23:33.574Z,4.72
2022-08-19T10:26:01.410Z,5.35
2022-08-19T10:28:27.940Z,5.25
2022-08-19T10:30:57.101Z,4.68
2022-08-19T10:33:38.911Z,4.80
2022-08-19T10:36:16.203Z,4.68
2022-08-19T10:38:56.105Z,4.82
2022-08-19T10:41:25.599Z,5.43
2022-08-19T10:43:58.951Z,5.30
2022-08-19T10:46:34.214Z,4.68
2022-08-19T10:49:02.813Z,4.72
2022-08-19T10:51:48.655Z,4.70
2022-08-19T10:54:15.819Z,4.82
2022-08-19T10:56:54.314Z,4.65
2022-08-19T10:59:35.836Z,5.07
2022-08-19T11:02:05.613Z,4.43
2022-08-19T11:04:33.008Z,4.65
2022-08-19T11:06:59.921Z,5.05
2022-08-19T11:09:34.049Z,4.53
2022-08-19T11:12:02.646Z,4.68
2022-08-19T11:14:34.019Z,4.80
2022-08-19T11:17:01.369Z,4.47
2022-08-19T11:19:28.491Z,4.43
2022-08-19T11:21:57.661Z,4.90
2022-08-19T11:24:28.424Z,4.72
2022-08-19T11:27:02.134Z,4.57
2022-08-19T11:29:29.089Z,4.55
2022-08-19T11:31:55.916Z,4.80
2022-08-19T11:34:26.253Z,4.70
2022-08-19T11:36:58.940Z,4.72
2022-08-19T11:39:27.350Z,4.47
2022-08-19T11:41:54.090Z,4.72
2022-08-19T11:44:20.670Z,4.82
2022-08-19T11:46:47.616Z,4.68
2022-08-19T11:49:17.422Z,4.93
2022-08-19T11:51:44.607Z,4.70
2022-08-19T11:54:13.764Z,5.07
2022-08-19T11:56:41.312Z,4.72
2022-08-19T11:59:12.751Z,4.28
2022-08-19T12:01:43.581Z,4.65
2022-08-19T12:04:11.090Z,4.20
2022-08-19T12:06:39.728Z,4.55
2022-08-19T12:09:10.459Z,4.28
2022-08-19T12:11:38.861Z,4.50
2022-08-19T12:14:05.514Z,4.35
2022-08-19T12:16:33.666Z,4.32
2022-08-19T12:19:04.775Z,4.53
2022-08-19T12:21:33.730Z,4.10
2022-08-19T12:24:01.477Z,4.57
2022-08-19T12:26:30.191Z,4.72
2022-08-19T12:28:56.834Z,4.50
2022-08-19T12:31:23.630Z,4.18
2022-08-19T12:33:50.217Z,4.43
2022-08-19T12:36:18.642Z,4.55
2022-08-19T12:38:45.550Z,4.40
2022-08-19T12:41:15.412Z,4.80
2022-08-19T12:43:42.857Z,4.40
2022-08-19T12:46:11.555Z,4.75
2022-08-19T12:48:42.554Z,4.60
2022-08-19T12:51:20.291Z,4.90
2022-08-19T12:53:50.630Z,4.50
2022-08-19T12:56:22.286Z,4.40
2022-08-19T12:58:52.985Z,4.40
2022-08-19T13:01:22.987Z,4.30
2022-08-19T13:03:51.026Z,4.95
2022-08-19T13:06:19.540Z,4.80
2022-08-19T13:08:47.318Z,4.55
2022-08-19T13:11:16.404Z,4.68
2022-08-19T13:13:44.408Z,4.40
2022-08-19T13:16:12.825Z,4.97
2022-08-19T13:18:40.812Z,4.53
2022-08-19T13:21:09.418Z,4.55
2022-08-19T13:23:36.793Z,4.72
2022-08-19T13:26:06.068Z,4.93
2022-08-19T13:28:51.828Z,4.60
2022-08-19T13:31:42.433Z,4.57
2022-08-19T13:34:09.054Z,4.80
2022-08-19T13:36:37.254Z,4.90
2022-08-19T13:39:05.442Z,4.63
2022-08-19T13:41:32.269Z,4.82
2022-08-19T13:43:58.810Z,4.90
2022-08-19T13:46:25.402Z,5.10
2022-08-19T13:48:51.977Z,5.00
2022-08-19T13:51:18.887Z,4.65
2022-08-19T13:53:48.035Z,4.78
2022-08-19T13:56:24.195Z,4.78
2022-08-19T13:58:52.989Z,5.00
2022-08-19T14:01:24.528Z,4.60
2022-08-19T14:03:51.598Z,4.68
2022-08-19T14:06:18.109Z,4.80
2022-08-19T14:08:46.377Z,4.72
2022-08-19T14:11:13.162Z,5.05
2022-08-19T14:13:39.801Z,4.93
2022-08-19T14:16:14.353Z,4.90
2022-08-19T14:18:41.442Z,5.00
2022-08-19T14:21:09.386Z,5.50
2022-08-19T14:23:37.165Z,4.68
2022-08-19T14:26:12.701Z,5.03
2022-08-19T14:28:41.854Z,5.05
2022-08-19T14:31:13.762Z,4.97
2022-08-19T14:33:41.434Z,5.47
2022-08-19T14:36:08.193Z,4.80
2022-08-19T14:38:35.405Z,4.82
2022-08-19T14:41:09.056Z,4.97
2022-08-19T14:43:35.685Z,4.80
2022-08-19T14:46:02.758Z,5.10
2022-08-19T14:48:33.810Z,4.90
2022-08-19T14:51:00.535Z,4.82
2022-08-19T14:53:27.068Z,4.75
2022-08-19T14:55:53.612Z,4.85
2022-08-19T14:58:28.339Z,5.13
2022-08-19T15:00:56.855Z,5.03
2022-08-19T15:03:23.487Z,4.82
2022-08-19T15:05:50.355Z,4.93
2022-08-19T15:08:16.941Z,5.20
2022-08-19T15:10:43.506Z,5.40
2022-08-19T15:13:10.472Z,5.22
2022-08-19T15:15:37.074Z,5.40
2022-08-19T15:18:04.834Z,5.60
2022-08-19T15:20:31.902Z,5.32
2022-08-19T15:22:59.937Z,5.32
2022-08-19T15:25:28.161Z,5.25
2022-08-19T15:27:57.438Z,5.05
2022-08-19T15:30:27.996Z,4.78
2022-08-19T15:32:55.733Z,5.20
2022-08-19T15:35:23.495Z,5.22
2022-08-19T15:37:52.078Z,5.35
2022-08-19T15:40:20.537Z,5.40
2022-08-19T15:42:47.627Z,5.05
2022-08-19T15:45:14.910Z,5.28
2022-08-19T15:47:41.788Z,5.38
2022-08-19T15:50:14.439Z,5.05
2022-08-19T15:52:53.457Z,5.25
2022-08-19T15:55:33.118Z,5.45
2022-08-19T15:58:28.412Z,5.60
2022-08-19T16:01:16.435Z,5.90
2022-08-19T16:04:03.813Z,5.90
2022-08-19T16:06:31.700Z,5.85
2022-08-19T16:09:01.985Z,5.53
2022-08-19T16:11:31.383Z,5.47
2022-08-19T16:13:59.614Z,5.22
2022-08-19T16:16:33.603Z,5.45
2022-08-19T16:19:02.722Z,5.45
2022-08-19T16:21:33.470Z,5.68
2022-08-19T16:24:07.958Z,6.15
2022-08-19T16:26:35.049Z,5.85
2022-08-19T16:29:04.026Z,5.40
2022-08-19T16:31:36.866Z,5.53
2022-08-19T16:34:26.236Z,5.60
2022-08-19T16:36:56.180Z,5.13
2022-08-19T16:39:23.838Z,5.28
2022-08-19T16:41:51.031Z,5.95
2022-08-19T16:44:19.486Z,5.68
2022-08-19T16:46:47.389Z,5.43
2022-08-19T16:49:53.527Z,6.00
2022-08-19T16:52:14.754Z,6.22
2022-08-19T16:54:41.764Z,6.07
2022-08-19T16:57:11.906Z,5.80
2022-08-19T16:59:42.555Z,6.10
2022-08-19T17:02:15.429Z,6.30
2022-08-19T17:04:42.009Z,6.20
2022-08-19T17:07:10.040Z,6.60
2022-08-19T17:09:38.011Z,6.63
2022-08-19T17:12:05.608Z,6.18
2022-08-19T17:14:32.168Z,6.60
2022-08-19T17:16:58.740Z,6.07
2022-08-19T17:19:25.338Z,6.53
2022-08-19T17:21:52.284Z,6.93
2022-08-19T17:24:18.831Z,6.68
2022-08-19T17:26:45.905Z,7.00
2022-08-19T17:29:12.546Z,6.43
2022-08-19T17:31:39.128Z,6.97
2022-08-19T17:34:06.417Z,6.60
2022-08-19T17:36:35.750Z,6.90
2022-08-19T17:39:05.456Z,6.50
2022-08-19T17:41:42.874Z,7.15
2022-08-19T17:44:09.747Z,6.68
2022-08-19T17:46:36.550Z,6.82
2022-08-19T17:49:03.551Z,7.22
2022-08-19T17:51:33.147Z,7.15
2022-08-19T17:54:04.351Z,7.10
2022-08-19T17:56:31.010Z,7.20
2022-08-19T17:59:00.321Z,7.50
2022-08-19T18:01:32.029Z,7.90
2022-08-19T18:04:17.308Z,7.90
2022-08-19T18:06:52.630Z,7.97
2022-08-19T18:09:23.658Z,8.20
2022-08-19T18:11:52.728Z,7.90
2022-08-19T18:14:21.261Z,7.72
2022-08-19T18:16:47.806Z,8.23
2022-08-19T18:19:14.375Z,7.95
2022-08-19T18:21:40.944Z,7.78
2022-08-19T18:24:08.157Z,8.00
2022-08-19T18:26:35.065Z,8.70
2022-08-19T18:29:02.109Z,8.52
2022-08-19T18:31:30.063Z,8.52
2022-08-19T18:33:57.180Z,8.30
2022-08-19T18:36:51.887Z,8.45
2022-08-19T18:39:29.873Z,8.68
2022-08-19T18:42:15.179Z,8.48
2022-08-19T18:45:03.159Z,9.07
2022-08-19T18:47:48.315Z,8.65
2022-08-19T18:50:15.043Z,8.85
2022-08-19T18:52:43.251Z,8.63
2022-08-19T18:55:10.245Z,9.45
2022-08-19T18:57:36.785Z,8.95
2022-08-19T19:00:05.309Z,9.20
2022-08-19T19:02:38.809Z,9.68
2022-08-19T19:05:07.644Z,9.20
2022-08-19T19:07:35.473Z,8.73
2022-08-19T19:10:02.419Z,8.48
2022-08-19T19:12:29.870Z,9.20
2022-08-19T19:14:58.520Z,9.60
2022-08-19T19:17:28.513Z,9.07
2022-08-19T19:19:55.345Z,9.45
2022-08-19T19:22:23.725Z,9.88
2022-08-19T19:24:50.985Z,9.15
2022-08-19T19:27:28.791Z,9.98
2022-08-19T19:29:55.755Z,8.73
2022-08-19T19:32:31.070Z,9.77
2022-08-19T19:34:57.733Z,9.25
2022-08-19T19:37:24.354Z,9.52
2022-08-19T19:39:51.028Z,9.40
2022-08-19T19:42:21.200Z,9.00
2022-08-19T19:44:50.553Z,9.30
2022-08-19T19:47:19.060Z,9.18
2022-08-19T19:50:13.136Z,9.75
2022-08-19T19:52:40.573Z,9.38
2022-08-19T19:55:09.467Z,9.65
2022-08-19T19:57:37.430Z,10.02
2022-08-19T20:00:05.212Z,9.60
2022-08-19T20:02:32.027Z,10.07
2022-08-19T20:04:58.858Z,10.05
2022-08-19T20:07:45.461Z,9.93
2022-08-19T20:10:13.118Z,9.40
2022-08-19T20:12:39.782Z,9.73
2022-08-19T20:15:07.279Z,9.15
2022-08-19T20:17:33.896Z,9.70
2022-08-19T20:20:00.410Z,9.10
2022-08-19T20:22:27.284Z,9.48
2022-08-19T20:25:01.810Z,8.90
2022-08-19T20:27:30.363Z,9.85
2022-08-19T20:30:02.683Z,10.27
2022-08-19T20:32:29.858Z,9.63
2022-08-19T20:34:58.617Z,9.98
2022-08-19T20:37:25.541Z,9.98
2022-08-19T20:39:52.207Z,10.20
2022-08-19T20:42:19.002Z,10.00
2022-08-19T20:44:45.818Z,9.82
2022-08-19T20:47:15.093Z,10.65
2022-08-19T20:49:41.798Z,9.32
2022-08-19T20:52:08.490Z,9.70
2022-08-19T20:54:35.083Z,9.63
2022-08-19T20:57:03.838Z,10.05
2022-08-19T20:59:30.447Z,9.45
2022-08-19T21:01:57.494Z,9.57
2022-08-19T21:04:24.226Z,9.75
2022-08-19T21:06:50.853Z,9.93
2022-08-19T21:09:17.579Z,9.85
2022-08-19T21:11:44.171Z,9.93
2022-08-19T21:14:10.826Z,9.93
2022-08-19T21:16:37.393Z,10.57
2022-08-19T21:19:04.798Z,10.43
2022-08-19T21:21:33.093Z,10.60
2022-08-19T21:23:59.895Z,9.95
2022-08-19T21:26:26.459Z,10.30
2022-08-19T21:28:53.100Z,10.27
2022-08-19T21:31:19.701Z,11.18
2022-08-19T21:33:46.326Z,10.50
2022-08-19T21:36:12.902Z,9.80
2022-08-19T21:38:39.590Z,10.65
2022-08-19T21:41:06.757Z,11.02
2022-08-19T21:43:35.173Z,11.00
2022-08-19T21:46:01.918Z,10.68
2022-08-19T21:48:28.685Z,10.35
2022-08-19T21:50:55.470Z,10.40
2022-08-19T21:53:23.033Z,10.77
2022-08-19T21:55:53.402Z,10.93
2022-08-19T21:58:28.233Z,10.73
2022-08-19T22:00:58.826Z,10.90
2022-08-19T22:03:25.932Z,10.38
2022-08-19T22:05:52.863Z,10.82
2022-08-19T22:08:19.822Z,10.90
2022-08-19T22:10:46.869Z,10.82
2022-08-19T22:13:13.631Z,10.88
2022-08-19T22:15:42.526Z,10.88
2022-08-19T22:18:09.308Z,10.85
2022-08-19T22:20:36.088Z,10.88
2022-08-19T22:23:06.878Z,10.65
2022-08-19T22:25:36.453Z,10.68
2022-08-19T22:28:06.143Z,11.13
2022-08-19T22:30:36.238Z,11.15
2022-08-19T22:33:06.398Z,11.13
2022-08-19T22:35:34.711Z,11.02
2022-08-19T22:38:02.938Z,11.55
2022-08-19T22:40:30.623Z,11.23
2022-08-19T22:43:03.440Z,11.30
2022-08-19T22:45:31.411Z,11.75
2022-08-19T22:47:58.064Z,10.30
2022-08-19T22:50:24.756Z,10.88
2022-08-19T22:52:58.883Z,11.00
2022-08-19T22:55:26.800Z,10.77
2022-08-19T22:57:53.536Z,10.30
2022-08-19T23:00:22.329Z,10.82
2022-08-19T23:02:51.656Z,9.88
2022-08-19T23:05:22.202Z,11.00
2022-08-19T23:07:52.685Z,11.38
2022-08-19T23:10:26.642Z,11.20
2022-08-19T23:12:57.047Z,11.02
2022-08-19T23:15:27.684Z,10.25
2022-08-19T23:18:00.066Z,10.55
2022-08-19T23:20:30.627Z,10.80
2022-08-19T23:22:57.684Z,10.93
2022-08-19T23:25:27.403Z,11.27
2022-08-19T23:28:13.046Z,10.65
2022-08-19T23:30:43.772Z,10.40
2022-08-19T23:33:24.848Z,11.18
2022-08-19T23:36:01.468Z,10.43
2022-08-19T23:38:32.342Z,11.80
2022-08-19T23:41:01.903Z,11.70
2022-08-19T23:43:30.291Z,10.95
2022-08-19T23:46:00.818Z,11.50
2022-08-19T23:48:29.012Z,11.15
2022-08-19T23:50:57.116Z,10.43
2022-08-19T23:53:24.159Z,11.38
2022-08-19T23:55:50.987Z,10.85
2022-08-19T23:58:18.561Z,11.32
